Plumville, Pennsylvania
Current Conditions -  °F | °C
As of 5:55 PM on Friday 28 Nov 2014 (Local Time) from KIDI Reporting Station
Overcast Overcast  
Wind Chill: 23°   Ceiling: 3600
Heat Index: 23°   Visibility: 10mi
Dew Point: 14°   Wind: 0mph
Humidity: 68%   Direction: NA
Pressure: 30.25"   Gusts: NA
Location:  40.79°N, 79.18°W
Report Text: KIDI 282255Z AUTO 00000KT 10SM FEW028 OVC036 M05/M10 A3025 RMK A01
Loading
Personal Weather Stations






























Interactive Weather Map New forecast layout! Learn more

10-Day Weather Forecast

Advertisements
Track Severe Weather on mobile